sensor_id;sensor_type;location;lat;lon;timestamp;pressure;altitude;pressure_sealevel;temperature
24201;BMP280;2801;50.972;7.856;2022-08-11T00:01:27;98288.91;;;15.17
24201;BMP280;2801;50.972;7.856;2022-08-11T00:04:04;98288.59;;;15.18
24201;BMP280;2801;50.972;7.856;2022-08-11T00:06:35;98284.31;;;15.17
24201;BMP280;2801;50.972;7.856;2022-08-11T00:09:10;98285.63;;;15.11
24201;BMP280;2801;50.972;7.856;2022-08-11T00:11:48;98246.88;;;14.95
24201;BMP280;2801;50.972;7.856;2022-08-11T00:14:28;98274.94;;;15.03
24201;BMP280;2801;50.972;7.856;2022-08-11T00:17:14;98275.66;;;14.91
24201;BMP280;2801;50.972;7.856;2022-08-11T00:19:46;98280.16;;;14.87
24201;BMP280;2801;50.972;7.856;2022-08-11T00:22:37;98277.50;;;14.78
24201;BMP280;2801;50.972;7.856;2022-08-11T00:25:18;98275.03;;;14.73
24201;BMP280;2801;50.972;7.856;2022-08-11T00:27:47;98274.22;;;14.73
24201;BMP280;2801;50.972;7.856;2022-08-11T00:30:15;98278.53;;;14.74
24201;BMP280;2801;50.972;7.856;2022-08-11T00:32:53;98268.56;;;14.66
24201;BMP280;2801;50.972;7.856;2022-08-11T00:35:26;98274.50;;;14.59
24201;BMP280;2801;50.972;7.856;2022-08-11T00:38:16;98272.31;;;14.53
24201;BMP280;2801;50.972;7.856;2022-08-11T00:41:03;98282.41;;;14.44
24201;BMP280;2801;50.972;7.856;2022-08-11T00:55:52;98276.25;;;14.35
24201;BMP280;2801;50.972;7.856;2022-08-11T01:00:00;98285.66;;;14.29
24201;BMP280;2801;50.972;7.856;2022-08-11T01:02:38;98280.91;;;14.26
24201;BMP280;2801;50.972;7.856;2022-08-11T01:08:45;98283.22;;;14.07
24201;BMP280;2801;50.972;7.856;2022-08-11T01:30:25;98281.81;;;14.01
24201;BMP280;2801;50.972;7.856;2022-08-11T01:45:40;98282.72;;;13.76
24201;BMP280;2801;50.972;7.856;2022-08-11T01:48:34;98286.69;;;13.78
24201;BMP280;2801;50.972;7.856;2022-08-11T01:51:44;98277.16;;;13.81
24201;BMP280;2801;50.972;7.856;2022-08-11T01:54:40;98272.09;;;13.79
24201;BMP280;2801;50.972;7.856;2022-08-11T01:57:19;98286.38;;;13.80
24201;BMP280;2801;50.972;7.856;2022-08-11T02:00:09;98291.28;;;13.78
24201;BMP280;2801;50.972;7.856;2022-08-11T02:03:14;98292.41;;;13.77
24201;BMP280;2801;50.972;7.856;2022-08-11T02:08:44;98282.72;;;13.76
24201;BMP280;2801;50.972;7.856;2022-08-11T02:11:32;98284.75;;;13.79
24201;BMP280;2801;50.972;7.856;2022-08-11T02:16:50;98293.00;;;13.82
24201;BMP280;2801;50.972;7.856;2022-08-11T02:20:26;98290.38;;;13.65
24201;BMP280;2801;50.972;7.856;2022-08-11T02:24:02;98294.56;;;13.46
24201;BMP280;2801;50.972;7.856;2022-08-11T02:26:43;98296.78;;;13.44
24201;BMP280;2801;50.972;7.856;2022-08-11T02:29:22;98293.44;;;13.47
24201;BMP280;2801;50.972;7.856;2022-08-11T02:48:13;98301.88;;;13.28
24201;BMP280;2801;50.972;7.856;2022-08-11T02:56:48;98297.59;;;13.27
24201;BMP280;2801;50.972;7.856;2022-08-11T02:59:52;98292.09;;;13.24
24201;BMP280;2801;50.972;7.856;2022-08-11T03:03:00;98294.91;;;13.19
24201;BMP280;2801;50.972;7.856;2022-08-11T03:05:51;98302.84;;;13.15
24201;BMP280;2801;50.972;7.856;2022-08-11T03:08:54;98297.47;;;13.07
24201;BMP280;2801;50.972;7.856;2022-08-11T03:11:51;98298.09;;;13.04
24201;BMP280;2801;50.972;7.856;2022-08-11T03:14:47;98299.53;;;13.10
24201;BMP280;2801;50.972;7.856;2022-08-11T03:18:03;98296.53;;;13.03
24201;BMP280;2801;50.972;7.856;2022-08-11T03:20:47;98291.94;;;13.03
24201;BMP280;2801;50.972;7.856;2022-08-11T03:26:31;98276.88;;;12.85
24201;BMP280;2801;50.972;7.856;2022-08-11T03:29:42;98295.56;;;12.90
24201;BMP280;2801;50.972;7.856;2022-08-11T03:32:28;98291.28;;;12.89
24201;BMP280;2801;50.972;7.856;2022-08-11T03:34:59;98297.94;;;12.92
24201;BMP280;2801;50.972;7.856;2022-08-11T03:38:15;98290.03;;;12.87
24201;BMP280;2801;50.972;7.856;2022-08-11T03:41:17;98287.00;;;12.80
24201;BMP280;2801;50.972;7.856;2022-08-11T03:47:40;98294.44;;;12.66
24201;BMP280;2801;50.972;7.856;2022-08-11T03:53:54;98295.69;;;12.43
24201;BMP280;2801;50.972;7.856;2022-08-11T04:12:52;98309.91;;;12.26
24201;BMP280;2801;50.972;7.856;2022-08-11T04:27:23;98315.16;;;12.31
24201;BMP280;2801;50.972;7.856;2022-08-11T04:30:22;98315.59;;;12.33
24201;BMP280;2801;50.972;7.856;2022-08-11T04:35:52;98306.59;;;12.38
24201;BMP280;2801;50.972;7.856;2022-08-11T04:39:03;98306.31;;;12.39
24201;BMP280;2801;50.972;7.856;2022-08-11T04:42:10;98311.22;;;12.46
24201;BMP280;2801;50.972;7.856;2022-08-11T05:04:40;98303.00;;;13.27
24201;BMP280;2801;50.972;7.856;2022-08-11T05:13:45;98298.63;;;13.98
24201;BMP280;2801;50.972;7.856;2022-08-11T05:16:49;98298.38;;;14.49
24201;BMP280;2801;50.972;7.856;2022-08-11T05:19:36;98298.50;;;14.94
24201;BMP280;2801;50.972;7.856;2022-08-11T05:22:28;98294.94;;;15.34
24201;BMP280;2801;50.972;7.856;2022-08-11T05:25:29;98296.31;;;15.73
24201;BMP280;2801;50.972;7.856;2022-08-11T05:28:55;98302.84;;;16.08
24201;BMP280;2801;50.972;7.856;2022-08-11T05:31:55;98291.16;;;16.28
24201;BMP280;2801;50.972;7.856;2022-08-11T05:34:50;98303.88;;;16.63
24201;BMP280;2801;50.972;7.856;2022-08-11T05:40:07;98308.50;;;17.02
24201;BMP280;2801;50.972;7.856;2022-08-11T05:42:59;98300.09;;;17.19
24201;BMP280;2801;50.972;7.856;2022-08-11T05:45:58;98306.97;;;17.44
24201;BMP280;2801;50.972;7.856;2022-08-11T05:48:44;98302.19;;;17.69
24201;BMP280;2801;50.972;7.856;2022-08-11T05:51:38;98305.34;;;17.86
24201;BMP280;2801;50.972;7.856;2022-08-11T05:54:40;98293.03;;;18.04
24201;BMP280;2801;50.972;7.856;2022-08-11T05:57:35;98312.84;;;18.55
24201;BMP280;2801;50.972;7.856;2022-08-11T06:00:18;98302.97;;;18.82
24201;BMP280;2801;50.972;7.856;2022-08-11T06:02:57;98298.63;;;19.15
24201;BMP280;2801;50.972;7.856;2022-08-11T06:05:33;98296.41;;;19.40
24201;BMP280;2801;50.972;7.856;2022-08-11T06:08:11;98296.53;;;19.69
24201;BMP280;2801;50.972;7.856;2022-08-11T06:10:42;98300.13;;;19.96
24201;BMP280;2801;50.972;7.856;2022-08-11T06:13:15;98298.16;;;20.15
24201;BMP280;2801;50.972;7.856;2022-08-11T06:15:46;98288.31;;;20.33
24201;BMP280;2801;50.972;7.856;2022-08-11T06:18:14;98293.97;;;20.47
24201;BMP280;2801;50.972;7.856;2022-08-11T06:20:55;98294.47;;;20.56
24201;BMP280;2801;50.972;7.856;2022-08-11T06:23:32;98277.88;;;20.65
24201;BMP280;2801;50.972;7.856;2022-08-11T06:26:12;98277.63;;;20.77
24201;BMP280;2801;50.972;7.856;2022-08-11T06:28:43;98276.69;;;20.92
24201;BMP280;2801;50.972;7.856;2022-08-11T06:31:18;98278.78;;;21.02
24201;BMP280;2801;50.972;7.856;2022-08-11T06:36:42;98288.06;;;20.97
24201;BMP280;2801;50.972;7.856;2022-08-11T06:45:17;98285.78;;;21.03
24201;BMP280;2801;50.972;7.856;2022-08-11T06:47:46;98283.53;;;21.08
24201;BMP280;2801;50.972;7.856;2022-08-11T06:50:20;98273.94;;;21.21
24201;BMP280;2801;50.972;7.856;2022-08-11T06:53:08;98269.50;;;21.43
24201;BMP280;2801;50.972;7.856;2022-08-11T06:55:41;98272.53;;;21.71
24201;BMP280;2801;50.972;7.856;2022-08-11T06:58:35;98266.94;;;22.01
24201;BMP280;2801;50.972;7.856;2022-08-11T07:04:40;98259.00;;;22.32
24201;BMP280;2801;50.972;7.856;2022-08-11T07:11:31;98252.19;;;22.70
24201;BMP280;2801;50.972;7.856;2022-08-11T07:14:26;98247.19;;;22.86
24201;BMP280;2801;50.972;7.856;2022-08-11T07:17:21;98246.47;;;22.99
24201;BMP280;2801;50.972;7.856;2022-08-11T07:19:58;98248.06;;;23.11
24201;BMP280;2801;50.972;7.856;2022-08-11T07:22:57;98244.25;;;23.29
24201;BMP280;2801;50.972;7.856;2022-08-11T07:25:52;98243.94;;;23.66
24201;BMP280;2801;50.972;7.856;2022-08-11T07:28:46;98248.25;;;24.23
24201;BMP280;2801;50.972;7.856;2022-08-11T07:37:17;98223.81;;;26.89
24201;BMP280;2801;50.972;7.856;2022-08-11T07:39:48;98213.88;;;27.55
24201;BMP280;2801;50.972;7.856;2022-08-11T07:42:20;98215.41;;;28.29
24201;BMP280;2801;50.972;7.856;2022-08-11T07:44:49;98210.84;;;28.84
24201;BMP280;2801;50.972;7.856;2022-08-11T07:47:36;98207.97;;;29.27
24201;BMP280;2801;50.972;7.856;2022-08-11T07:50:23;98206.91;;;29.56
24201;BMP280;2801;50.972;7.856;2022-08-11T07:53:12;98203.16;;;29.82
24201;BMP280;2801;50.972;7.856;2022-08-11T07:55:41;98208.59;;;29.70
24201;BMP280;2801;50.972;7.856;2022-08-11T07:58:20;98207.06;;;29.49
24201;BMP280;2801;50.972;7.856;2022-08-11T08:01:23;98209.97;;;29.26
24201;BMP280;2801;50.972;7.856;2022-08-11T08:04:15;98203.88;;;28.76
24201;BMP280;2801;50.972;7.856;2022-08-11T08:07:05;98213.66;;;28.38
24201;BMP280;2801;50.972;7.856;2022-08-11T08:09:52;98217.44;;;28.05
24201;BMP280;2801;50.972;7.856;2022-08-11T08:12:42;98218.56;;;27.81
24201;BMP280;2801;50.972;7.856;2022-08-11T08:15:29;98216.59;;;27.58
24201;BMP280;2801;50.972;7.856;2022-08-11T08:18:16;98218.44;;;27.38
24201;BMP280;2801;50.972;7.856;2022-08-11T08:20:55;98227.69;;;27.25
24201;BMP280;2801;50.972;7.856;2022-08-11T08:23:46;98222.19;;;27.25
24201;BMP280;2801;50.972;7.856;2022-08-11T08:26:21;98216.25;;;27.26
24201;BMP280;2801;50.972;7.856;2022-08-11T08:29:13;98225.22;;;27.34
24201;BMP280;2801;50.972;7.856;2022-08-11T08:32:01;98215.75;;;27.35
24201;BMP280;2801;50.972;7.856;2022-08-11T08:34:28;98222.25;;;27.48
24201;BMP280;2801;50.972;7.856;2022-08-11T08:36:59;98225.00;;;27.48
24201;BMP280;2801;50.972;7.856;2022-08-11T08:39:26;98225.31;;;27.53
24201;BMP280;2801;50.972;7.856;2022-08-11T08:41:56;98217.09;;;27.50
24201;BMP280;2801;50.972;7.856;2022-08-11T08:44:25;98219.78;;;27.53
24201;BMP280;2801;50.972;7.856;2022-08-11T08:47:12;98221.25;;;27.61
24201;BMP280;2801;50.972;7.856;2022-08-11T08:49:45;98217.34;;;27.59
24201;BMP280;2801;50.972;7.856;2022-08-11T08:52:23;98215.00;;;27.57
24201;BMP280;2801;50.972;7.856;2022-08-11T08:55:03;98202.63;;;27.46
24201;BMP280;2801;50.972;7.856;2022-08-11T08:57:35;98221.78;;;27.53
24201;BMP280;2801;50.972;7.856;2022-08-11T09:00:08;98216.69;;;27.51
24201;BMP280;2801;50.972;7.856;2022-08-11T09:02:41;98220.91;;;27.59
24201;BMP280;2801;50.972;7.856;2022-08-11T09:05:09;98216.03;;;27.67
24201;BMP280;2801;50.972;7.856;2022-08-11T09:07:38;98199.47;;;27.70
24201;BMP280;2801;50.972;7.856;2022-08-11T09:10:09;98212.63;;;27.86
24201;BMP280;2801;50.972;7.856;2022-08-11T09:12:40;98208.25;;;27.89
24201;BMP280;2801;50.972;7.856;2022-08-11T09:15:10;98217.28;;;27.89
24201;BMP280;2801;50.972;7.856;2022-08-11T09:17:47;98196.31;;;27.72
24201;BMP280;2801;50.972;7.856;2022-08-11T09:20:19;98212.25;;;27.84
24201;BMP280;2801;50.972;7.856;2022-08-11T09:22:49;98218.13;;;27.86
24201;BMP280;2801;50.972;7.856;2022-08-11T09:25:58;98199.28;;;27.85
24201;BMP280;2801;50.972;7.856;2022-08-11T09:28:46;98191.16;;;27.97
24201;BMP280;2801;50.972;7.856;2022-08-11T09:31:15;98195.72;;;28.07
24201;BMP280;2801;50.972;7.856;2022-08-11T09:33:43;98188.47;;;28.17
24201;BMP280;2801;50.972;7.856;2022-08-11T09:36:12;98195.66;;;28.34
24201;BMP280;2801;50.972;7.856;2022-08-11T09:38:59;98202.97;;;28.44
24201;BMP280;2801;50.972;7.856;2022-08-11T09:41:48;98172.63;;;28.44
24201;BMP280;2801;50.972;7.856;2022-08-11T09:44:31;98186.56;;;28.56
24201;BMP280;2801;50.972;7.856;2022-08-11T09:47:28;98184.50;;;28.60
24201;BMP280;2801;50.972;7.856;2022-08-11T09:50:01;98187.28;;;28.60
24201;BMP280;2801;50.972;7.856;2022-08-11T09:52:33;98175.81;;;28.62
24201;BMP280;2801;50.972;7.856;2022-08-11T09:55:02;98175.81;;;28.62
24201;BMP280;2801;50.972;7.856;2022-08-11T09:57:45;98176.38;;;28.73
24201;BMP280;2801;50.972;7.856;2022-08-11T10:00:36;98168.81;;;28.77
24201;BMP280;2801;50.972;7.856;2022-08-11T10:03:12;98174.19;;;28.84
24201;BMP280;2801;50.972;7.856;2022-08-11T10:05:47;98180.69;;;29.13
24201;BMP280;2801;50.972;7.856;2022-08-11T10:08:37;98178.06;;;29.57
24201;BMP280;2801;50.972;7.856;2022-08-11T10:11:08;98166.31;;;30.01
24201;BMP280;2801;50.972;7.856;2022-08-11T10:13:44;98166.06;;;30.40
24201;BMP280;2801;50.972;7.856;2022-08-11T10:16:50;98157.22;;;30.45
24201;BMP280;2801;50.972;7.856;2022-08-11T10:19:19;98162.28;;;30.34
24201;BMP280;2801;50.972;7.856;2022-08-11T10:21:51;98160.59;;;30.24
24201;BMP280;2801;50.972;7.856;2022-08-11T10:24:40;98156.28;;;30.07
24201;BMP280;2801;50.972;7.856;2022-08-11T10:27:28;98163.31;;;29.96
24201;BMP280;2801;50.972;7.856;2022-08-11T10:30:15;98166.31;;;29.85
24201;BMP280;2801;50.972;7.856;2022-08-11T10:33:02;98163.56;;;29.69
24201;BMP280;2801;50.972;7.856;2022-08-11T10:36:06;98166.19;;;29.60
24201;BMP280;2801;50.972;7.856;2022-08-11T10:38:44;98148.53;;;29.54
24201;BMP280;2801;50.972;7.856;2022-08-11T10:41:13;98160.84;;;29.50
24201;BMP280;2801;50.972;7.856;2022-08-11T10:43:59;98148.25;;;29.49
24201;BMP280;2801;50.972;7.856;2022-08-11T10:46:30;98144.13;;;29.57
24201;BMP280;2801;50.972;7.856;2022-08-11T10:49:17;98151.94;;;29.62
24201;BMP280;2801;50.972;7.856;2022-08-11T10:51:45;98157.97;;;29.73
24201;BMP280;2801;50.972;7.856;2022-08-11T10:54:33;98150.00;;;29.75
24201;BMP280;2801;50.972;7.856;2022-08-11T10:57:21;98131.59;;;29.84
24201;BMP280;2801;50.972;7.856;2022-08-11T11:00:10;98135.34;;;30.22
24201;BMP280;2801;50.972;7.856;2022-08-11T11:02:43;98125.81;;;30.52
24201;BMP280;2801;50.972;7.856;2022-08-11T11:05:31;98121.81;;;30.81
24201;BMP280;2801;50.972;7.856;2022-08-11T11:08:12;98123.81;;;30.93
24201;BMP280;2801;50.972;7.856;2022-08-11T11:11:01;98121.41;;;30.96
24201;BMP280;2801;50.972;7.856;2022-08-11T11:13:34;98118.06;;;31.01
24201;BMP280;2801;50.972;7.856;2022-08-11T11:16:24;98112.63;;;31.10
24201;BMP280;2801;50.972;7.856;2022-08-11T11:19:11;98109.88;;;31.22
24201;BMP280;2801;50.972;7.856;2022-08-11T11:21:51;98095.97;;;31.26
24201;BMP280;2801;50.972;7.856;2022-08-11T11:24:59;98084.53;;;31.36
24201;BMP280;2801;50.972;7.856;2022-08-11T11:30:27;98077.09;;;31.33
24201;BMP280;2801;50.972;7.856;2022-08-11T11:33:18;98085.41;;;31.33
24201;BMP280;2801;50.972;7.856;2022-08-11T11:36:16;98085.53;;;31.30
24201;BMP280;2801;50.972;7.856;2022-08-11T11:38:49;98082.09;;;31.26
24201;BMP280;2801;50.972;7.856;2022-08-11T11:41:16;98086.06;;;31.25
24201;BMP280;2801;50.972;7.856;2022-08-11T11:43:55;98072.78;;;31.32
24201;BMP280;2801;50.972;7.856;2022-08-11T11:46:29;98074.75;;;31.32
24201;BMP280;2801;50.972;7.856;2022-08-11T11:49:06;98069.44;;;31.37
24201;BMP280;2801;50.972;7.856;2022-08-11T11:51:46;98065.41;;;31.51
24201;BMP280;2801;50.972;7.856;2022-08-11T11:54:30;98065.09;;;31.49
24201;BMP280;2801;50.972;7.856;2022-08-11T11:56:59;98062.41;;;31.58
24201;BMP280;2801;50.972;7.856;2022-08-11T11:59:49;98059.84;;;31.63
24201;BMP280;2801;50.972;7.856;2022-08-11T12:02:36;98056.25;;;31.41
24201;BMP280;2801;50.972;7.856;2022-08-11T12:05:07;98045.59;;;31.40
24201;BMP280;2801;50.972;7.856;2022-08-11T12:07:36;98048.47;;;31.49
24201;BMP280;2801;50.972;7.856;2022-08-11T12:13:12;98043.72;;;31.71
24201;BMP280;2801;50.972;7.856;2022-08-11T12:15:59;98044.94;;;31.82
24201;BMP280;2801;50.972;7.856;2022-08-11T12:18:53;98049.41;;;31.80
24201;BMP280;2801;50.972;7.856;2022-08-11T12:21:23;98039.06;;;31.80
24201;BMP280;2801;50.972;7.856;2022-08-11T12:23:51;98046.25;;;31.90
24201;BMP280;2801;50.972;7.856;2022-08-11T12:26:39;98046.34;;;31.99
24201;BMP280;2801;50.972;7.856;2022-08-11T12:29:36;98033.75;;;32.07
24201;BMP280;2801;50.972;7.856;2022-08-11T12:32:10;98029.94;;;32.14
24201;BMP280;2801;50.972;7.856;2022-08-11T12:34:37;98027.78;;;32.30
24201;BMP280;2801;50.972;7.856;2022-08-11T12:37:05;98019.66;;;32.45
24201;BMP280;2801;50.972;7.856;2022-08-11T12:39:50;98000.88;;;32.49
24201;BMP280;2801;50.972;7.856;2022-08-11T12:43:02;98010.06;;;32.37
24201;BMP280;2801;50.972;7.856;2022-08-11T12:46:22;98003.91;;;32.42
24201;BMP280;2801;50.972;7.856;2022-08-11T12:48:58;97998.56;;;32.47
24201;BMP280;2801;50.972;7.856;2022-08-11T12:51:50;97991.91;;;32.45
24201;BMP280;2801;50.972;7.856;2022-08-11T12:57:46;97986.75;;;32.65
24201;BMP280;2801;50.972;7.856;2022-08-11T13:00:32;97984.22;;;32.79
24201;BMP280;2801;50.972;7.856;2022-08-11T13:03:20;97984.72;;;32.87
24201;BMP280;2801;50.972;7.856;2022-08-11T13:06:07;97979.66;;;32.94
24201;BMP280;2801;50.972;7.856;2022-08-11T13:08:38;97976.88;;;32.94
24201;BMP280;2801;50.972;7.856;2022-08-11T13:11:06;97970.53;;;32.94
24201;BMP280;2801;50.972;7.856;2022-08-11T13:14:15;97974.72;;;32.98
24201;BMP280;2801;50.972;7.856;2022-08-11T13:16:44;97977.06;;;33.00
24201;BMP280;2801;50.972;7.856;2022-08-11T13:19:40;97979.22;;;33.14
24201;BMP280;2801;50.972;7.856;2022-08-11T13:22:17;97969.38;;;33.22
24201;BMP280;2801;50.972;7.856;2022-08-11T13:24:45;97970.66;;;33.39
24201;BMP280;2801;50.972;7.856;2022-08-11T13:27:17;97965.56;;;33.46
24201;BMP280;2801;50.972;7.856;2022-08-11T13:29:45;97957.22;;;33.46
24201;BMP280;2801;50.972;7.856;2022-08-11T13:32:15;97961.53;;;33.47
24201;BMP280;2801;50.972;7.856;2022-08-11T13:34:43;97957.22;;;33.55
24201;BMP280;2801;50.972;7.856;2022-08-11T13:37:13;97953.66;;;33.46
24201;BMP280;2801;50.972;7.856;2022-08-11T13:39:44;97939.63;;;33.40
24201;BMP280;2801;50.972;7.856;2022-08-11T13:42:15;97949.50;;;33.41
24201;BMP280;2801;50.972;7.856;2022-08-11T13:44:46;97942.25;;;33.53
24201;BMP280;2801;50.972;7.856;2022-08-11T13:47:14;97948.56;;;33.62
24201;BMP280;2801;50.972;7.856;2022-08-11T13:49:43;97943.59;;;33.75
24201;BMP280;2801;50.972;7.856;2022-08-11T13:52:14;97939.75;;;33.73
24201;BMP280;2801;50.972;7.856;2022-08-11T13:54:45;97930.66;;;33.63
24201;BMP280;2801;50.972;7.856;2022-08-11T13:57:14;97937.75;;;33.64
24201;BMP280;2801;50.972;7.856;2022-08-11T14:00:08;97935.28;;;33.66
24201;BMP280;2801;50.972;7.856;2022-08-11T14:02:52;97920.31;;;33.64
24201;BMP280;2801;50.972;7.856;2022-08-11T14:05:27;97927.09;;;33.72
24201;BMP280;2801;50.972;7.856;2022-08-11T14:08:04;97926.47;;;33.77
24201;BMP280;2801;50.972;7.856;2022-08-11T14:10:36;97920.44;;;33.87
24201;BMP280;2801;50.972;7.856;2022-08-11T14:13:12;97917.97;;;33.89
24201;BMP280;2801;50.972;7.856;2022-08-11T14:16:19;97935.31;;;33.84
24201;BMP280;2801;50.972;7.856;2022-08-11T14:18:53;97923.69;;;33.95
24201;BMP280;2801;50.972;7.856;2022-08-11T14:21:23;97920.13;;;33.94
24201;BMP280;2801;50.972;7.856;2022-08-11T14:24:10;97914.41;;;33.89
24201;BMP280;2801;50.972;7.856;2022-08-11T14:26:40;97915.78;;;33.93
24201;BMP280;2801;50.972;7.856;2022-08-11T14:29:14;97919.50;;;34.00
24201;BMP280;2801;50.972;7.856;2022-08-11T14:31:58;97918.69;;;34.08
24201;BMP280;2801;50.972;7.856;2022-08-11T14:34:30;97905.69;;;34.14
24201;BMP280;2801;50.972;7.856;2022-08-11T14:37:01;97907.06;;;34.19
24201;BMP280;2801;50.972;7.856;2022-08-11T14:39:33;97917.28;;;34.22
24201;BMP280;2801;50.972;7.856;2022-08-11T14:42:06;97918.03;;;34.22
24201;BMP280;2801;50.972;7.856;2022-08-11T14:44:56;97906.63;;;34.11
24201;BMP280;2801;50.972;7.856;2022-08-11T14:47:47;97901.97;;;34.17
24201;BMP280;2801;50.972;7.856;2022-08-11T14:50:24;97896.56;;;34.14
24201;BMP280;2801;50.972;7.856;2022-08-11T14:52:57;97891.59;;;34.18
24201;BMP280;2801;50.972;7.856;2022-08-11T14:55:28;97901.31;;;34.31
24201;BMP280;2801;50.972;7.856;2022-08-11T14:58:17;97901.94;;;34.35
24201;BMP280;2801;50.972;7.856;2022-08-11T15:00:46;97898.53;;;34.31
24201;BMP280;2801;50.972;7.856;2022-08-11T15:03:16;97903.97;;;34.17
24201;BMP280;2801;50.972;7.856;2022-08-11T15:05:50;97894.44;;;34.09
24201;BMP280;2801;50.972;7.856;2022-08-11T15:08:28;97898.88;;;34.15
24201;BMP280;2801;50.972;7.856;2022-08-11T15:11:17;97895.47;;;34.20
24201;BMP280;2801;50.972;7.856;2022-08-11T15:14:05;97887.72;;;34.24
24201;BMP280;2801;50.972;7.856;2022-08-11T15:16:35;97890.81;;;34.35
24201;BMP280;2801;50.972;7.856;2022-08-11T15:19:25;97884.78;;;34.28
24201;BMP280;2801;50.972;7.856;2022-08-11T15:21:53;97876.59;;;34.33
24201;BMP280;2801;50.972;7.856;2022-08-11T15:24:39;97878.44;;;34.36
24201;BMP280;2801;50.972;7.856;2022-08-11T15:27:20;97879.50;;;34.30
24201;BMP280;2801;50.972;7.856;2022-08-11T15:30:07;97878.91;;;34.26
24201;BMP280;2801;50.972;7.856;2022-08-11T15:33:07;97875.69;;;34.18
24201;BMP280;2801;50.972;7.856;2022-08-11T15:35:55;97878.81;;;34.11
24201;BMP280;2801;50.972;7.856;2022-08-11T15:38:50;97868.75;;;34.14
24201;BMP280;2801;50.972;7.856;2022-08-11T15:41:45;97870.59;;;34.17
24201;BMP280;2801;50.972;7.856;2022-08-11T15:44:36;97862.41;;;34.13
24201;BMP280;2801;50.972;7.856;2022-08-11T15:48:02;97864.00;;;33.96
24201;BMP280;2801;50.972;7.856;2022-08-11T15:50:38;97858.91;;;33.94
24201;BMP280;2801;50.972;7.856;2022-08-11T15:53:25;97856.31;;;33.91
24201;BMP280;2801;50.972;7.856;2022-08-11T15:55:54;97862.28;;;33.98
24201;BMP280;2801;50.972;7.856;2022-08-11T15:58:25;97856.28;;;34.00
24201;BMP280;2801;50.972;7.856;2022-08-11T16:01:35;97843.03;;;33.86
24201;BMP280;2801;50.972;7.856;2022-08-11T16:04:26;97849.53;;;33.83
24201;BMP280;2801;50.972;7.856;2022-08-11T16:07:02;97855.25;;;33.70
24201;BMP280;2801;50.972;7.856;2022-08-11T16:09:42;97858.56;;;33.42
24201;BMP280;2801;50.972;7.856;2022-08-11T16:12:27;97851.41;;;33.14
24201;BMP280;2801;50.972;7.856;2022-08-11T16:15:00;97845.88;;;32.96
24201;BMP280;2801;50.972;7.856;2022-08-11T16:17:52;97846.13;;;32.71
24201;BMP280;2801;50.972;7.856;2022-08-11T16:20:24;97849.31;;;32.51
24201;BMP280;2801;50.972;7.856;2022-08-11T16:22:59;97844.19;;;32.32
24201;BMP280;2801;50.972;7.856;2022-08-11T16:25:33;97844.38;;;32.16
24201;BMP280;2801;50.972;7.856;2022-08-11T16:28:22;97843.00;;;32.11
24201;BMP280;2801;50.972;7.856;2022-08-11T16:30:49;97836.94;;;32.04
24201;BMP280;2801;50.972;7.856;2022-08-11T16:33:19;97840.28;;;31.90
24201;BMP280;2801;50.972;7.856;2022-08-11T16:36:10;97837.44;;;31.81
24201;BMP280;2801;50.972;7.856;2022-08-11T16:38:59;97832.94;;;31.74
24201;BMP280;2801;50.972;7.856;2022-08-11T16:41:31;97839.97;;;31.66
24201;BMP280;2801;50.972;7.856;2022-08-11T16:44:20;97844.81;;;31.53
24201;BMP280;2801;50.972;7.856;2022-08-11T16:47:12;97844.16;;;31.49
24201;BMP280;2801;50.972;7.856;2022-08-11T16:49:54;97851.63;;;31.40
24201;BMP280;2801;50.972;7.856;2022-08-11T16:52:22;97839.16;;;31.35
24201;BMP280;2801;50.972;7.856;2022-08-11T16:54:50;97840.31;;;31.25
24201;BMP280;2801;50.972;7.856;2022-08-11T16:57:24;97832.66;;;31.17
24201;BMP280;2801;50.972;7.856;2022-08-11T17:00:14;97838.59;;;31.06
24201;BMP280;2801;50.972;7.856;2022-08-11T17:02:53;97842.63;;;30.92
24201;BMP280;2801;50.972;7.856;2022-08-11T17:05:49;97818.53;;;30.68
24201;BMP280;2801;50.972;7.856;2022-08-11T17:08:45;97852.00;;;30.73
24201;BMP280;2801;50.972;7.856;2022-08-11T17:11:41;97840.56;;;30.59
24201;BMP280;2801;50.972;7.856;2022-08-11T17:14:42;97838.38;;;30.41
24201;BMP280;2801;50.972;7.856;2022-08-11T17:17:25;97857.22;;;30.34
24201;BMP280;2801;50.972;7.856;2022-08-11T17:19:58;97835.53;;;30.20
24201;BMP280;2801;50.972;7.856;2022-08-11T17:22:48;97846.91;;;30.09
24201;BMP280;2801;50.972;7.856;2022-08-11T17:25:40;97844.94;;;29.97
24201;BMP280;2801;50.972;7.856;2022-08-11T17:28:28;97837.81;;;29.84
24201;BMP280;2801;50.972;7.856;2022-08-11T17:30:57;97842.13;;;29.72
24201;BMP280;2801;50.972;7.856;2022-08-11T17:33:50;97849.16;;;29.61
24201;BMP280;2801;50.972;7.856;2022-08-11T17:36:37;97852.56;;;29.52
24201;BMP280;2801;50.972;7.856;2022-08-11T17:39:12;97844.91;;;29.44
24201;BMP280;2801;50.972;7.856;2022-08-11T17:41:41;97841.91;;;29.38
24201;BMP280;2801;50.972;7.856;2022-08-11T17:44:29;97835.06;;;29.30
24201;BMP280;2801;50.972;7.856;2022-08-11T17:47:17;97842.75;;;29.23
24201;BMP280;2801;50.972;7.856;2022-08-11T17:50:06;97837.84;;;29.14
24201;BMP280;2801;50.972;7.856;2022-08-11T17:52:45;97847.09;;;29.08
24201;BMP280;2801;50.972;7.856;2022-08-11T17:55:34;97844.53;;;29.01
24201;BMP280;2801;50.972;7.856;2022-08-11T17:58:22;97844.25;;;28.95
24201;BMP280;2801;50.972;7.856;2022-08-11T18:01:10;97856.25;;;28.89
24201;BMP280;2801;50.972;7.856;2022-08-11T18:03:40;97846.63;;;28.81
24201;BMP280;2801;50.972;7.856;2022-08-11T18:06:26;97848.13;;;28.69
24201;BMP280;2801;50.972;7.856;2022-08-11T18:09:09;97866.28;;;28.67
24201;BMP280;2801;50.972;7.856;2022-08-11T18:11:57;97863.38;;;28.58
24201;BMP280;2801;50.972;7.856;2022-08-11T18:14:48;97860.88;;;28.47
24201;BMP280;2801;50.972;7.856;2022-08-11T18:17:35;97871.78;;;28.35
24201;BMP280;2801;50.972;7.856;2022-08-11T18:20:22;97874.06;;;28.04
24201;BMP280;2801;50.972;7.856;2022-08-11T18:23:17;97875.31;;;27.64
24201;BMP280;2801;50.972;7.856;2022-08-11T18:26:18;97874.69;;;27.14
24201;BMP280;2801;50.972;7.856;2022-08-11T18:29:07;97878.94;;;26.76
24201;BMP280;2801;50.972;7.856;2022-08-11T18:31:56;97886.06;;;26.47
24201;BMP280;2801;50.972;7.856;2022-08-11T18:34:53;97879.06;;;26.16
24201;BMP280;2801;50.972;7.856;2022-08-11T18:37:46;97892.78;;;25.89
24201;BMP280;2801;50.972;7.856;2022-08-11T18:40:35;97891.50;;;25.67
24201;BMP280;2801;50.972;7.856;2022-08-11T18:43:23;97888.59;;;25.48
24201;BMP280;2801;50.972;7.856;2022-08-11T18:46:13;97892.38;;;25.24
24201;BMP280;2801;50.972;7.856;2022-08-11T18:49:26;97902.88;;;24.95
24201;BMP280;2801;50.972;7.856;2022-08-11T18:52:32;97911.38;;;24.63